• Join FlightAware (Why Join?)
  • Login
  • US Flag 
12:17AM EST


 

Airport Tracker/Info


-or-


 

Live Flight TrackerFlight Track Log ✈ CSN3801 ✈ 20-Apr-2013 ✈ ZGGG / CAN - ZSHC / HGH

Flight Track Log - Related Links

Times and Time Zones

All times are in EDT time to prevent confusion due to time zone crossing. See the CSN3801 flight status page for this flight to view local times or setup timezone preferences in your user account.

Time Position Orientation Groundspeed Altitude Reporting Facility
EDT Latitude Longitude Course Direction KTS MPH feet Rate Location/Type
08:22AM 23.3400 113.3000 172° South 2,200  Level FlightAware
08:22AM 23.3200 113.3070 162° South 3,200 2,400 Climbing FlightAware
08:23AM 23.3150 113.3220 110° East 3,700 1,980 Climbing FlightAware
08:23AM 23.3270 113.3460 61° Northeast 4,800 2,160 Climbing FlightAware
08:24AM 23.3400 113.3630 50° Northeast 5,500 1,680 Climbing FlightAware
08:24AM 23.3500 113.3750 48° Northeast 5,800 1,200 Climbing FlightAware
08:24AM 23.3590 113.3860 48° Northeast 6,000 780 Climbing FlightAware
08:24AM 23.3870 113.4070 35° Northeast 6,500 1,200 Climbing FlightAware
08:25AM 23.4200 113.4270 29° Northeast 7,000 960 Climbing FlightAware
08:25AM 23.4550 113.4490 30° Northeast 7,200 360 Climbing FlightAware
08:26AM 23.4830 113.4660 29° Northeast 8,300 2,640 Climbing FlightAware
08:26AM 23.5180 113.4890 31° Northeast 9,500 2,400 Climbing FlightAware
08:27AM 23.5660 113.5220 32° Northeast 10,400 1,320 Climbing FlightAware
08:28AM 23.6190 113.5580 32° Northeast 11,500 1,620 Climbing FlightAware
08:28AM 23.6860 113.6030 32° Northeast 11,800 360 Climbing FlightAware
08:29AM 23.7400 113.6480 37° Northeast 11,800  Level FlightAware
08:30AM 23.7770 113.7210 61° Northeast 11,800  Level FlightAware
08:31AM 23.8070 113.7900 65° Northeast 11,800  Level FlightAware
08:32AM 23.8610 113.9110 64° Northeast 12,800 840 Climbing FlightAware
08:34AM 24.0158 114.0580 41° Northeast  Level Estimated
08:34AM 23.9700 114.1590 41° Northeast 12,800  Level FlightAware
08:35AM 24.0050 114.2400 65° Northeast 12,800  Level FlightAware
08:35AM 24.0360 114.3110 64° Northeast 12,800  Level FlightAware
08:36AM 24.0700 114.3890 64° Northeast 12,800  Level FlightAware
08:37AM 24.0980 114.4520 64° Northeast 12,800  Level FlightAware
08:38AM 24.1370 114.5400 64° Northeast 12,800  Level FlightAware
08:38AM 24.1590 114.5900 64° Northeast 12,800  Level FlightAware
08:41AM 24.3690 114.7786 39° Northeast  Level Estimated
08:42AM 24.4571 114.8579 39° Northeast  Level Estimated
08:43AM 24.5451 114.9374 39° Northeast  Level Estimated
08:44AM 24.6331 115.0169 39° Northeast  Level Estimated
08:45AM 24.7211 115.0966 39° Northeast  Level Estimated
08:46AM 24.8090 115.1764 39° Northeast  Level Estimated
08:47AM 24.8968 115.2563 40° Northeast  Level Estimated
08:48AM 24.9846 115.3363 40° Northeast  Level Estimated
08:49AM 25.0724 115.4164 40° Northeast  Level Estimated
08:50AM 25.1601 115.4966 40° Northeast  Level Estimated
08:51AM 25.2478 115.5770 40° Northeast  Level Estimated
08:52AM 25.3354 115.6574 40° Northeast  Level Estimated
08:53AM 25.4230 115.7380 40° Northeast  Level Estimated
08:54AM 25.5106 115.8187 40° Northeast  Level Estimated
08:55AM 25.5981 115.8995 40° Northeast  Level Estimated
08:56AM 25.6855 115.9804 40° Northeast  Level Estimated
08:57AM 25.7729 116.0615 40° Northeast  Level Estimated
08:58AM 25.8603 116.1427 40° Northeast  Level Estimated
08:59AM 25.9477 116.2240 40° Northeast  Level Estimated
09:00AM 26.0349 116.3054 40° Northeast  Level Estimated
09:01AM 26.1222 116.3869 40° Northeast  Level Estimated
09:02AM 26.2094 116.4685 40° Northeast  Level Estimated
09:03AM 26.2965 116.5503 40° Northeast  Level Estimated
09:04AM 26.3836 116.6322 40° Northeast  Level Estimated
09:05AM 26.4706 116.7142 40° Northeast  Level Estimated
09:06AM 26.5576 116.7964 40° Northeast  Level Estimated
09:07AM 26.6446 116.8787 40° Northeast  Level Estimated
09:08AM 26.7315 116.9611 40° Northeast  Level Estimated
09:09AM 26.8184 117.0436 40° Northeast  Level Estimated
09:10AM 26.9052 117.1262 40° Northeast  Level Estimated
09:11AM 26.9919 117.2090 40° Northeast  Level Estimated
09:12AM 27.0787 117.2919 40° Northeast  Level Estimated
09:13AM 27.1653 117.3749 40° Northeast  Level Estimated
09:14AM 27.2519 117.4581 40° Northeast  Level Estimated
09:15AM 27.3385 117.5414 41° Northeast  Level Estimated
09:16AM 27.4250 117.6248 41° Northeast  Level Estimated
09:17AM 27.5115 117.7084 41° Northeast  Level Estimated
09:18AM 27.5979 117.7920 41° Northeast  Level Estimated
09:19AM 27.6843 117.8759 41° Northeast  Level Estimated
09:20AM 27.7706 117.9598 41° Northeast  Level Estimated
09:21AM 27.8569 118.0439 41° Northeast  Level Estimated
09:22AM 27.9431 118.1281 41° Northeast  Level Estimated
09:23AM 28.0293 118.2125 41° Northeast  Level Estimated
09:24AM 28.1154 118.2970 41° Northeast  Level Estimated
09:25AM 28.2015 118.3816 41° Northeast  Level Estimated
09:26AM 28.2875 118.4663 41° Northeast  Level Estimated
09:27AM 28.3734 118.5512 41° Northeast  Level Estimated
09:28AM 28.4593 118.6363 41° Northeast  Level Estimated
09:29AM 28.5452 118.7214 41° Northeast  Level Estimated
09:30AM 28.6310 118.8067 41° Northeast  Level Estimated
09:31AM 28.7167 118.8922 41° Northeast  Level Estimated
09:32AM 28.8024 118.9778 41° Northeast  Level Estimated
09:33AM 28.8881 119.0635 41° Northeast  Level Estimated
09:34AM 28.9736 119.1494 41° Northeast  Level Estimated
09:35AM 29.0592 119.2354 41° Northeast  Level Estimated
09:36AM 29.1446 119.3215 41° Northeast  Level Estimated
09:37AM 29.2300 119.4079 41° Northeast  Level Estimated
09:38AM 29.3154 119.4943 41° Northeast  Level Estimated
09:39AM 29.4007 119.5809 41° Northeast  Level Estimated
09:40AM 29.4860 119.6676 42° Northeast  Level Estimated
09:41AM 29.5712 119.7545 42° Northeast  Level Estimated
09:42AM 29.6563 119.8415 42° Northeast  Level Estimated
09:43AM 29.7414 119.9287 42° Northeast  Level Estimated
09:44AM 29.8264 120.0160 42° Northeast  Level Estimated
09:45AM 29.9114 120.1035 42° Northeast  Level Estimated
09:46AM 29.9963 120.1911 42° Northeast  Level Estimated
09:47AM 30.0811 120.2789 42° Northeast  Level Estimated
09:48AM 30.1659 120.3668 42° Northeast  Level Estimated
09:49AM 30.2283 120.4317 42° Northeast  Level Estimated
09:50AM 30.2283 120.4317 319° Northwest  Level Estimated
09:51AM 30.2283 120.4317 319° Northwest  Level Estimated
09:52AM 30.2283 120.4317 319° Northwest  Level Estimated
09:53AM 30.2283 120.4317 319° Northwest  Level Estimated
09:54AM 30.2283 120.4317 319° Northwest  Level Estimated
09:55AM 30.2283 120.4317 319° Northwest  Level Estimated
09:56AM 30.2283 120.4317 319° Northwest  Level Estimated
09:57AM 30.2283 120.4317 319° Northwest  Level Estimated
09:58AM 30.2283 120.4317 319° Northwest  Level Estimated
09:59AM 30.2283 120.4317 319° Northwest  Level Estimated